Terminal Aerodrome Forecast
Issued by NWS

Home | Current Version | Previous Version | Text Only | Print | Product List | Glossary On
Versions: 1 2 3 4 5 6 7 8 9 10 11 12 13 14 15 16
000
FTUS46 KSGX 251744 CCA
TAFPSP
TAF COR
KPSP 251744Z 2518/2618 04011KT P6SM SKC
     FM260300 33009KT P6SM SKC
     FM261500 VRB06KT P6SM SKC=

USA.gov is the U.S. government's official web portal to all federal, state and local government web resources and services.